sensor_id;sensor_type;location;lat;lon;timestamp;P1;durP1;ratioP1;P2;durP2;ratioP2
6374;SDS011;35400;45.472;-122.822;2023-04-25T00:00:44;1.57;;;0.40;;
6374;SDS011;35400;45.472;-122.822;2023-04-25T00:03:11;0.30;;;0.30;;
6374;SDS011;35400;45.472;-122.822;2023-04-25T00:05:39;2.20;;;0.30;;
6374;SDS011;35400;45.472;-122.822;2023-04-25T00:08:06;0.23;;;0.23;;
6374;SDS011;35400;45.472;-122.822;2023-04-25T00:10:33;0.20;;;0.20;;
6374;SDS011;35400;45.472;-122.822;2023-04-25T00:13:00;0.20;;;0.20;;
6374;SDS011;35400;45.472;-122.822;2023-04-25T00:15:28;0.60;;;0.40;;
6374;SDS011;35400;45.472;-122.822;2023-04-25T00:17:57;0.20;;;0.20;;
6374;SDS011;35400;45.472;-122.822;2023-04-25T00:20:24;0.10;;;0.10;;
6374;SDS011;35400;45.472;-122.822;2023-04-25T00:22:51;0.30;;;0.30;;
6374;SDS011;35400;45.472;-122.822;2023-04-25T00:25:21;0.20;;;0.20;;
6374;SDS011;35400;45.472;-122.822;2023-04-25T00:27:48;0.43;;;0.30;;
6374;SDS011;35400;45.472;-122.822;2023-04-25T00:30:15;0.47;;;0.20;;
6374;SDS011;35400;45.472;-122.822;2023-04-25T00:32:42;1.70;;;0.30;;
6374;SDS011;35400;45.472;-122.822;2023-04-25T00:35:09;0.50;;;0.40;;
6374;SDS011;35400;45.472;-122.822;2023-04-25T00:37:36;0.40;;;0.30;;
6374;SDS011;35400;45.472;-122.822;2023-04-25T00:40:04;0.63;;;0.20;;
6374;SDS011;35400;45.472;-122.822;2023-04-25T00:42:32;0.20;;;0.20;;
6374;SDS011;35400;45.472;-122.822;2023-04-25T00:45:01;0.20;;;0.20;;
6374;SDS011;35400;45.472;-122.822;2023-04-25T00:47:30;0.30;;;0.30;;
6374;SDS011;35400;45.472;-122.822;2023-04-25T00:49:58;0.30;;;0.20;;
6374;SDS011;35400;45.472;-122.822;2023-04-25T00:52:25;0.33;;;0.33;;
6374;SDS011;35400;45.472;-122.822;2023-04-25T00:54:52;0.20;;;0.20;;
6374;SDS011;35400;45.472;-122.822;2023-04-25T00:57:20;0.73;;;0.40;;
6374;SDS011;35400;45.472;-122.822;2023-04-25T00:59:47;0.27;;;0.23;;
6374;SDS011;35400;45.472;-122.822;2023-04-25T01:02:16;0.30;;;0.30;;
6374;SDS011;35400;45.472;-122.822;2023-04-25T01:04:44;1.23;;;0.50;;
6374;SDS011;35400;45.472;-122.822;2023-04-25T01:07:11;1.33;;;0.30;;
6374;SDS011;35400;45.472;-122.822;2023-04-25T01:09:38;1.20;;;0.20;;
6374;SDS011;35400;45.472;-122.822;2023-04-25T01:12:05;0.70;;;0.37;;
6374;SDS011;35400;45.472;-122.822;2023-04-25T01:14:33;0.73;;;0.30;;
6374;SDS011;35400;45.472;-122.822;2023-04-25T01:17:00;0.57;;;0.20;;
6374;SDS011;35400;45.472;-122.822;2023-04-25T01:19:27;0.50;;;0.30;;
6374;SDS011;35400;45.472;-122.822;2023-04-25T01:21:56;0.20;;;0.20;;
6374;SDS011;35400;45.472;-122.822;2023-04-25T01:24:23;0.20;;;0.20;;
6374;SDS011;35400;45.472;-122.822;2023-04-25T01:26:51;0.20;;;0.20;;
6374;SDS011;35400;45.472;-122.822;2023-04-25T01:29:23;0.37;;;0.30;;
6374;SDS011;35400;45.472;-122.822;2023-04-25T01:31:51;1.57;;;0.40;;
6374;SDS011;35400;45.472;-122.822;2023-04-25T01:34:18;0.40;;;0.40;;
6374;SDS011;35400;45.472;-122.822;2023-04-25T01:36:46;0.70;;;0.40;;
6374;SDS011;35400;45.472;-122.822;2023-04-25T01:39:15;0.40;;;0.30;;
6374;SDS011;35400;45.472;-122.822;2023-04-25T01:41:44;0.30;;;0.30;;
6374;SDS011;35400;45.472;-122.822;2023-04-25T01:44:14;0.73;;;0.20;;
6374;SDS011;35400;45.472;-122.822;2023-04-25T01:46:41;0.40;;;0.40;;
6374;SDS011;35400;45.472;-122.822;2023-04-25T01:49:08;0.50;;;0.30;;
6374;SDS011;35400;45.472;-122.822;2023-04-25T01:51:35;0.30;;;0.30;;
6374;SDS011;35400;45.472;-122.822;2023-04-25T01:54:02;1.33;;;0.50;;
6374;SDS011;35400;45.472;-122.822;2023-04-25T01:56:30;1.23;;;0.40;;
6374;SDS011;35400;45.472;-122.822;2023-04-25T01:58:58;2.40;;;0.30;;
6374;SDS011;35400;45.472;-122.822;2023-04-25T02:02:04;0.37;;;0.37;;
6374;SDS011;35400;45.472;-122.822;2023-04-25T02:04:32;0.40;;;0.40;;
6374;SDS011;35400;45.472;-122.822;2023-04-25T02:07:00;0.30;;;0.30;;
6374;SDS011;35400;45.472;-122.822;2023-04-25T02:09:37;0.20;;;0.20;;
6374;SDS011;35400;45.472;-122.822;2023-04-25T02:12:05;0.53;;;0.23;;
6374;SDS011;35400;45.472;-122.822;2023-04-25T02:14:53;0.30;;;0.30;;
6374;SDS011;35400;45.472;-122.822;2023-04-25T02:17:52;0.30;;;0.30;;
6374;SDS011;35400;45.472;-122.822;2023-04-25T02:20:22;0.47;;;0.40;;
6374;SDS011;35400;45.472;-122.822;2023-04-25T02:22:50;0.40;;;0.40;;
6374;SDS011;35400;45.472;-122.822;2023-04-25T02:25:19;0.53;;;0.40;;
6374;SDS011;35400;45.472;-122.822;2023-04-25T02:27:47;0.47;;;0.33;;
6374;SDS011;35400;45.472;-122.822;2023-04-25T02:30:14;0.60;;;0.30;;
6374;SDS011;35400;45.472;-122.822;2023-04-25T02:32:41;0.53;;;0.50;;
6374;SDS011;35400;45.472;-122.822;2023-04-25T02:35:08;0.73;;;0.40;;
6374;SDS011;35400;45.472;-122.822;2023-04-25T02:37:38;0.63;;;0.40;;
6374;SDS011;35400;45.472;-122.822;2023-04-25T02:40:05;1.27;;;0.40;;
6374;SDS011;35400;45.472;-122.822;2023-04-25T02:42:33;0.53;;;0.40;;
6374;SDS011;35400;45.472;-122.822;2023-04-25T02:45:00;0.63;;;0.30;;
6374;SDS011;35400;45.472;-122.822;2023-04-25T02:47:28;0.93;;;0.30;;
6374;SDS011;35400;45.472;-122.822;2023-04-25T02:49:55;0.97;;;0.30;;
6374;SDS011;35400;45.472;-122.822;2023-04-25T02:52:22;0.57;;;0.53;;
6374;SDS011;35400;45.472;-122.822;2023-04-25T02:54:57;1.97;;;0.83;;
6374;SDS011;35400;45.472;-122.822;2023-04-25T02:57:25;0.70;;;0.70;;
6374;SDS011;35400;45.472;-122.822;2023-04-25T02:59:52;0.40;;;0.30;;
6374;SDS011;35400;45.472;-122.822;2023-04-25T03:02:19;0.43;;;0.40;;
6374;SDS011;35400;45.472;-122.822;2023-04-25T03:04:46;1.03;;;0.30;;
6374;SDS011;35400;45.472;-122.822;2023-04-25T03:07:13;0.33;;;0.30;;
6374;SDS011;35400;45.472;-122.822;2023-04-25T03:09:40;0.83;;;0.40;;
6374;SDS011;35400;45.472;-122.822;2023-04-25T03:12:07;1.70;;;0.40;;
6374;SDS011;35400;45.472;-122.822;2023-04-25T03:14:34;0.30;;;0.30;;
6374;SDS011;35400;45.472;-122.822;2023-04-25T03:17:01;0.47;;;0.30;;
6374;SDS011;35400;45.472;-122.822;2023-04-25T03:19:28;2.00;;;0.40;;
6374;SDS011;35400;45.472;-122.822;2023-04-25T03:21:54;1.27;;;0.40;;
6374;SDS011;35400;45.472;-122.822;2023-04-25T03:24:21;0.77;;;0.40;;
6374;SDS011;35400;45.472;-122.822;2023-04-25T03:26:48;0.47;;;0.37;;
6374;SDS011;35400;45.472;-122.822;2023-04-25T03:29:15;0.90;;;0.30;;
6374;SDS011;35400;45.472;-122.822;2023-04-25T03:31:43;0.50;;;0.33;;
6374;SDS011;35400;45.472;-122.822;2023-04-25T03:34:11;0.67;;;0.33;;
6374;SDS011;35400;45.472;-122.822;2023-04-25T03:36:40;0.57;;;0.40;;
6374;SDS011;35400;45.472;-122.822;2023-04-25T03:39:07;0.83;;;0.40;;
6374;SDS011;35400;45.472;-122.822;2023-04-25T03:41:34;0.63;;;0.40;;
6374;SDS011;35400;45.472;-122.822;2023-04-25T03:44:05;0.63;;;0.23;;
6374;SDS011;35400;45.472;-122.822;2023-04-25T03:46:32;1.87;;;0.70;;
6374;SDS011;35400;45.472;-122.822;2023-04-25T03:48:59;1.00;;;0.33;;
6374;SDS011;35400;45.472;-122.822;2023-04-25T03:51:39;0.80;;;0.43;;
6374;SDS011;35400;45.472;-122.822;2023-04-25T03:54:06;4.63;;;0.53;;
6374;SDS011;35400;45.472;-122.822;2023-04-25T03:56:36;1.30;;;0.33;;
6374;SDS011;35400;45.472;-122.822;2023-04-25T03:59:13;0.27;;;0.27;;
6374;SDS011;35400;45.472;-122.822;2023-04-25T04:01:40;1.63;;;0.40;;
6374;SDS011;35400;45.472;-122.822;2023-04-25T04:04:07;0.47;;;0.40;;
6374;SDS011;35400;45.472;-122.822;2023-04-25T04:06:34;0.73;;;0.30;;
6374;SDS011;35400;45.472;-122.822;2023-04-25T04:09:08;0.30;;;0.20;;
6374;SDS011;35400;45.472;-122.822;2023-04-25T04:11:38;1.00;;;0.20;;
6374;SDS011;35400;45.472;-122.822;2023-04-25T04:14:06;0.47;;;0.30;;
6374;SDS011;35400;45.472;-122.822;2023-04-25T04:16:34;1.33;;;0.40;;
6374;SDS011;35400;45.472;-122.822;2023-04-25T04:19:02;0.80;;;0.37;;
6374;SDS011;35400;45.472;-122.822;2023-04-25T04:21:29;0.87;;;0.40;;
6374;SDS011;35400;45.472;-122.822;2023-04-25T04:23:57;3.13;;;0.50;;
6374;SDS011;35400;45.472;-122.822;2023-04-25T04:26:28;1.03;;;0.23;;
6374;SDS011;35400;45.472;-122.822;2023-04-25T04:29:07;1.30;;;0.40;;
6374;SDS011;35400;45.472;-122.822;2023-04-25T04:31:54;0.87;;;0.40;;
6374;SDS011;35400;45.472;-122.822;2023-04-25T04:34:21;0.47;;;0.30;;
6374;SDS011;35400;45.472;-122.822;2023-04-25T04:36:50;1.03;;;0.50;;
6374;SDS011;35400;45.472;-122.822;2023-04-25T04:39:18;0.67;;;0.40;;
6374;SDS011;35400;45.472;-122.822;2023-04-25T04:42:15;0.23;;;0.20;;
6374;SDS011;35400;45.472;-122.822;2023-04-25T04:45:05;2.63;;;0.50;;
6374;SDS011;35400;45.472;-122.822;2023-04-25T04:47:45;0.80;;;0.40;;
6374;SDS011;35400;45.472;-122.822;2023-04-25T04:50:32;0.60;;;0.30;;
6374;SDS011;35400;45.472;-122.822;2023-04-25T04:53:19;0.40;;;0.40;;
6374;SDS011;35400;45.472;-122.822;2023-04-25T04:56:07;2.13;;;0.43;;
6374;SDS011;35400;45.472;-122.822;2023-04-25T04:58:49;0.73;;;0.40;;
6374;SDS011;35400;45.472;-122.822;2023-04-25T05:01:36;1.10;;;0.50;;
6374;SDS011;35400;45.472;-122.822;2023-04-25T05:04:34;0.77;;;0.50;;
6374;SDS011;35400;45.472;-122.822;2023-04-25T05:07:33;3.30;;;0.60;;
6374;SDS011;35400;45.472;-122.822;2023-04-25T05:10:19;1.03;;;0.60;;
6374;SDS011;35400;45.472;-122.822;2023-04-25T05:12:55;1.37;;;0.37;;
6374;SDS011;35400;45.472;-122.822;2023-04-25T05:15:34;0.70;;;0.40;;
6374;SDS011;35400;45.472;-122.822;2023-04-25T05:18:10;1.17;;;0.40;;
6374;SDS011;35400;45.472;-122.822;2023-04-25T05:20:55;1.90;;;0.73;;
6374;SDS011;35400;45.472;-122.822;2023-04-25T05:23:35;1.63;;;0.40;;
6374;SDS011;35400;45.472;-122.822;2023-04-25T05:26:20;0.80;;;0.40;;
6374;SDS011;35400;45.472;-122.822;2023-04-25T05:29:13;1.00;;;0.47;;
6374;SDS011;35400;45.472;-122.822;2023-04-25T05:31:53;2.40;;;0.40;;
6374;SDS011;35400;45.472;-122.822;2023-04-25T05:34:21;2.00;;;0.70;;
6374;SDS011;35400;45.472;-122.822;2023-04-25T05:36:53;1.00;;;0.87;;
6374;SDS011;35400;45.472;-122.822;2023-04-25T05:39:21;1.27;;;0.73;;
6374;SDS011;35400;45.472;-122.822;2023-04-25T05:42:26;1.27;;;0.60;;
6374;SDS011;35400;45.472;-122.822;2023-04-25T05:45:21;2.83;;;0.80;;
6374;SDS011;35400;45.472;-122.822;2023-04-25T05:47:55;1.90;;;0.63;;
6374;SDS011;35400;45.472;-122.822;2023-04-25T05:50:35;1.30;;;0.60;;
6374;SDS011;35400;45.472;-122.822;2023-04-25T05:53:12;0.60;;;0.60;;
6374;SDS011;35400;45.472;-122.822;2023-04-25T05:55:41;0.60;;;0.50;;
6374;SDS011;35400;45.472;-122.822;2023-04-25T05:58:18;1.03;;;0.50;;
6374;SDS011;35400;45.472;-122.822;2023-04-25T06:00:46;0.70;;;0.57;;
6374;SDS011;35400;45.472;-122.822;2023-04-25T06:03:13;1.83;;;0.70;;
6374;SDS011;35400;45.472;-122.822;2023-04-25T06:05:44;1.33;;;0.60;;
6374;SDS011;35400;45.472;-122.822;2023-04-25T06:08:11;0.37;;;0.37;;
6374;SDS011;35400;45.472;-122.822;2023-04-25T06:10:38;0.97;;;0.50;;
6374;SDS011;35400;45.472;-122.822;2023-04-25T06:13:04;1.50;;;0.50;;
6374;SDS011;35400;45.472;-122.822;2023-04-25T06:15:34;0.47;;;0.40;;
6374;SDS011;35400;45.472;-122.822;2023-04-25T06:18:01;2.20;;;0.47;;
6374;SDS011;35400;45.472;-122.822;2023-04-25T06:20:28;1.73;;;0.70;;
6374;SDS011;35400;45.472;-122.822;2023-04-25T06:22:57;0.53;;;0.40;;
6374;SDS011;35400;45.472;-122.822;2023-04-25T06:25:50;0.50;;;0.47;;
6374;SDS011;35400;45.472;-122.822;2023-04-25T06:28:17;0.40;;;0.40;;
6374;SDS011;35400;45.472;-122.822;2023-04-25T06:30:45;0.77;;;0.43;;
6374;SDS011;35400;45.472;-122.822;2023-04-25T06:33:16;3.07;;;0.53;;
6374;SDS011;35400;45.472;-122.822;2023-04-25T06:35:43;0.60;;;0.47;;
6374;SDS011;35400;45.472;-122.822;2023-04-25T06:38:12;1.40;;;0.60;;
6374;SDS011;35400;45.472;-122.822;2023-04-25T06:40:44;2.10;;;0.50;;
6374;SDS011;35400;45.472;-122.822;2023-04-25T06:43:11;1.17;;;0.30;;
6374;SDS011;35400;45.472;-122.822;2023-04-25T06:45:52;1.30;;;0.60;;
6374;SDS011;35400;45.472;-122.822;2023-04-25T06:48:21;1.10;;;0.80;;
6374;SDS011;35400;45.472;-122.822;2023-04-25T06:50:48;0.60;;;0.50;;
6374;SDS011;35400;45.472;-122.822;2023-04-25T06:53:17;1.80;;;0.50;;
6374;SDS011;35400;45.472;-122.822;2023-04-25T06:55:48;1.13;;;0.40;;
6374;SDS011;35400;45.472;-122.822;2023-04-25T06:58:20;1.60;;;0.70;;
6374;SDS011;35400;45.472;-122.822;2023-04-25T07:00:54;2.70;;;0.70;;
6374;SDS011;35400;45.472;-122.822;2023-04-25T07:03:23;0.80;;;0.47;;
6374;SDS011;35400;45.472;-122.822;2023-04-25T07:05:54;0.60;;;0.53;;
6374;SDS011;35400;45.472;-122.822;2023-04-25T07:08:21;2.97;;;0.47;;
6374;SDS011;35400;45.472;-122.822;2023-04-25T07:10:48;0.83;;;0.33;;
6374;SDS011;35400;45.472;-122.822;2023-04-25T07:13:15;1.97;;;0.50;;
6374;SDS011;35400;45.472;-122.822;2023-04-25T07:15:42;0.40;;;0.40;;
6374;SDS011;35400;45.472;-122.822;2023-04-25T07:18:10;0.57;;;0.50;;
6374;SDS011;35400;45.472;-122.822;2023-04-25T07:20:37;0.50;;;0.47;;
6374;SDS011;35400;45.472;-122.822;2023-04-25T07:23:04;1.00;;;0.60;;
6374;SDS011;35400;45.472;-122.822;2023-04-25T07:25:32;2.13;;;0.40;;
6374;SDS011;35400;45.472;-122.822;2023-04-25T07:27:59;0.53;;;0.40;;
6374;SDS011;35400;45.472;-122.822;2023-04-25T07:30:26;1.83;;;0.77;;
6374;SDS011;35400;45.472;-122.822;2023-04-25T07:32:53;0.57;;;0.40;;
6374;SDS011;35400;45.472;-122.822;2023-04-25T07:35:21;0.70;;;0.20;;
6374;SDS011;35400;45.472;-122.822;2023-04-25T07:37:48;0.73;;;0.33;;
6374;SDS011;35400;45.472;-122.822;2023-04-25T07:40:18;1.23;;;0.50;;
6374;SDS011;35400;45.472;-122.822;2023-04-25T07:42:52;1.90;;;0.60;;
6374;SDS011;35400;45.472;-122.822;2023-04-25T07:45:26;2.20;;;0.40;;
6374;SDS011;35400;45.472;-122.822;2023-04-25T07:47:53;1.73;;;0.50;;
6374;SDS011;35400;45.472;-122.822;2023-04-25T07:50:20;1.63;;;0.40;;
6374;SDS011;35400;45.472;-122.822;2023-04-25T07:52:47;0.93;;;0.30;;
6374;SDS011;35400;45.472;-122.822;2023-04-25T07:55:26;0.40;;;0.40;;
6374;SDS011;35400;45.472;-122.822;2023-04-25T07:58:02;0.47;;;0.43;;
6374;SDS011;35400;45.472;-122.822;2023-04-25T08:00:30;1.37;;;0.60;;
6374;SDS011;35400;45.472;-122.822;2023-04-25T08:03:17;0.80;;;0.47;;
6374;SDS011;35400;45.472;-122.822;2023-04-25T08:05:45;0.67;;;0.50;;
6374;SDS011;35400;45.472;-122.822;2023-04-25T08:08:13;1.13;;;0.50;;
6374;SDS011;35400;45.472;-122.822;2023-04-25T08:10:40;0.83;;;0.60;;
6374;SDS011;35400;45.472;-122.822;2023-04-25T08:13:08;1.33;;;0.50;;
6374;SDS011;35400;45.472;-122.822;2023-04-25T08:15:36;1.60;;;0.60;;
6374;SDS011;35400;45.472;-122.822;2023-04-25T08:18:04;1.10;;;0.60;;
6374;SDS011;35400;45.472;-122.822;2023-04-25T08:20:31;2.00;;;0.60;;
6374;SDS011;35400;45.472;-122.822;2023-04-25T08:23:00;2.10;;;0.50;;
6374;SDS011;35400;45.472;-122.822;2023-04-25T08:25:39;0.50;;;0.47;;
6374;SDS011;35400;45.472;-122.822;2023-04-25T08:28:08;0.40;;;0.40;;
6374;SDS011;35400;45.472;-122.822;2023-04-25T08:30:36;1.60;;;0.57;;
6374;SDS011;35400;45.472;-122.822;2023-04-25T08:33:04;0.53;;;0.47;;
6374;SDS011;35400;45.472;-122.822;2023-04-25T08:35:45;1.13;;;0.50;;
6374;SDS011;35400;45.472;-122.822;2023-04-25T08:38:14;1.13;;;0.40;;
6374;SDS011;35400;45.472;-122.822;2023-04-25T08:40:41;0.63;;;0.43;;
6374;SDS011;35400;45.472;-122.822;2023-04-25T08:43:14;1.70;;;0.50;;
6374;SDS011;35400;45.472;-122.822;2023-04-25T08:45:43;1.47;;;0.60;;
6374;SDS011;35400;45.472;-122.822;2023-04-25T08:48:33;0.70;;;0.70;;
6374;SDS011;35400;45.472;-122.822;2023-04-25T08:51:01;0.60;;;0.50;;
6374;SDS011;35400;45.472;-122.822;2023-04-25T08:53:31;2.50;;;0.60;;
6374;SDS011;35400;45.472;-122.822;2023-04-25T08:56:04;1.33;;;0.53;;
6374;SDS011;35400;45.472;-122.822;2023-04-25T08:58:35;1.53;;;0.60;;
6374;SDS011;35400;45.472;-122.822;2023-04-25T09:01:03;1.80;;;0.93;;
6374;SDS011;35400;45.472;-122.822;2023-04-25T09:03:35;2.40;;;0.70;;
6374;SDS011;35400;45.472;-122.822;2023-04-25T09:06:03;1.03;;;0.70;;
6374;SDS011;35400;45.472;-122.822;2023-04-25T09:08:30;1.77;;;0.60;;
6374;SDS011;35400;45.472;-122.822;2023-04-25T09:10:57;1.30;;;0.60;;
6374;SDS011;35400;45.472;-122.822;2023-04-25T09:13:25;1.07;;;0.60;;
6374;SDS011;35400;45.472;-122.822;2023-04-25T09:16:20;2.30;;;0.67;;
6374;SDS011;35400;45.472;-122.822;2023-04-25T09:19:05;0.50;;;0.50;;
6374;SDS011;35400;45.472;-122.822;2023-04-25T09:21:34;0.80;;;0.70;;
6374;SDS011;35400;45.472;-122.822;2023-04-25T09:24:01;0.83;;;0.70;;
6374;SDS011;35400;45.472;-122.822;2023-04-25T09:26:28;4.13;;;0.90;;
6374;SDS011;35400;45.472;-122.822;2023-04-25T09:29:09;3.43;;;0.60;;
6374;SDS011;35400;45.472;-122.822;2023-04-25T09:31:39;3.20;;;0.67;;
6374;SDS011;35400;45.472;-122.822;2023-04-25T09:34:08;1.23;;;0.80;;
6374;SDS011;35400;45.472;-122.822;2023-04-25T09:36:45;0.80;;;0.80;;
6374;SDS011;35400;45.472;-122.822;2023-04-25T09:39:36;0.53;;;0.53;;
6374;SDS011;35400;45.472;-122.822;2023-04-25T09:42:11;0.70;;;0.70;;
6374;SDS011;35400;45.472;-122.822;2023-04-25T09:44:41;2.00;;;0.60;;
6374;SDS011;35400;45.472;-122.822;2023-04-25T09:47:13;0.83;;;0.50;;
6374;SDS011;35400;45.472;-122.822;2023-04-25T09:49:44;1.17;;;0.80;;
6374;SDS011;35400;45.472;-122.822;2023-04-25T09:52:18;0.50;;;0.50;;
6374;SDS011;35400;45.472;-122.822;2023-04-25T09:55:12;1.40;;;0.50;;
6374;SDS011;35400;45.472;-122.822;2023-04-25T09:57:39;1.40;;;0.50;;
6374;SDS011;35400;45.472;-122.822;2023-04-25T10:00:07;0.83;;;0.70;;
6374;SDS011;35400;45.472;-122.822;2023-04-25T10:02:41;1.37;;;0.43;;
6374;SDS011;35400;45.472;-122.822;2023-04-25T10:05:21;0.63;;;0.50;;
6374;SDS011;35400;45.472;-122.822;2023-04-25T10:07:50;0.50;;;0.50;;
6374;SDS011;35400;45.472;-122.822;2023-04-25T10:10:19;1.17;;;0.60;;
6374;SDS011;35400;45.472;-122.822;2023-04-25T10:12:51;0.67;;;0.50;;
6374;SDS011;35400;45.472;-122.822;2023-04-25T10:15:19;0.50;;;0.50;;
6374;SDS011;35400;45.472;-122.822;2023-04-25T10:17:47;1.20;;;0.50;;
6374;SDS011;35400;45.472;-122.822;2023-04-25T10:20:15;0.53;;;0.40;;
6374;SDS011;35400;45.472;-122.822;2023-04-25T10:22:43;0.80;;;0.60;;
6374;SDS011;35400;45.472;-122.822;2023-04-25T10:25:13;0.47;;;0.40;;
6374;SDS011;35400;45.472;-122.822;2023-04-25T10:27:41;3.57;;;0.67;;
6374;SDS011;35400;45.472;-122.822;2023-04-25T10:30:08;0.57;;;0.50;;
6374;SDS011;35400;45.472;-122.822;2023-04-25T10:32:43;0.43;;;0.43;;
6374;SDS011;35400;45.472;-122.822;2023-04-25T10:35:23;1.30;;;0.40;;
6374;SDS011;35400;45.472;-122.822;2023-04-25T10:40:25;1.50;;;0.60;;
6374;SDS011;35400;45.472;-122.822;2023-04-25T10:42:52;0.90;;;0.50;;
6374;SDS011;35400;45.472;-122.822;2023-04-25T10:45:22;1.20;;;0.77;;
6374;SDS011;35400;45.472;-122.822;2023-04-25T10:47:49;1.60;;;0.60;;
6374;SDS011;35400;45.472;-122.822;2023-04-25T10:50:16;0.67;;;0.60;;
6374;SDS011;35400;45.472;-122.822;2023-04-25T10:52:43;0.53;;;0.50;;
6374;SDS011;35400;45.472;-122.822;2023-04-25T10:55:10;0.97;;;0.50;;
6374;SDS011;35400;45.472;-122.822;2023-04-25T10:57:42;3.77;;;0.60;;
6374;SDS011;35400;45.472;-122.822;2023-04-25T11:00:23;1.13;;;0.40;;
6374;SDS011;35400;45.472;-122.822;2023-04-25T11:02:57;0.90;;;0.53;;
6374;SDS011;35400;45.472;-122.822;2023-04-25T11:08:00;1.53;;;0.67;;
6374;SDS011;35400;45.472;-122.822;2023-04-25T11:10:29;1.03;;;0.70;;
6374;SDS011;35400;45.472;-122.822;2023-04-25T11:12:57;2.40;;;0.93;;
6374;SDS011;35400;45.472;-122.822;2023-04-25T11:15:25;2.47;;;0.70;;
6374;SDS011;35400;45.472;-122.822;2023-04-25T11:17:53;0.43;;;0.40;;
6374;SDS011;35400;45.472;-122.822;2023-04-25T11:20:21;2.40;;;0.40;;
6374;SDS011;35400;45.472;-122.822;2023-04-25T11:22:51;0.50;;;0.50;;
6374;SDS011;35400;45.472;-122.822;2023-04-25T11:25:19;1.27;;;0.50;;
6374;SDS011;35400;45.472;-122.822;2023-04-25T11:27:52;1.63;;;0.73;;
6374;SDS011;35400;45.472;-122.822;2023-04-25T11:30:21;1.93;;;0.70;;
6374;SDS011;35400;45.472;-122.822;2023-04-25T11:32:49;0.73;;;0.40;;
6374;SDS011;35400;45.472;-122.822;2023-04-25T11:35:18;0.40;;;0.40;;
6374;SDS011;35400;45.472;-122.822;2023-04-25T11:37:46;0.80;;;0.50;;
6374;SDS011;35400;45.472;-122.822;2023-04-25T11:40:13;2.03;;;0.50;;
6374;SDS011;35400;45.472;-122.822;2023-04-25T11:42:43;1.37;;;0.50;;
6374;SDS011;35400;45.472;-122.822;2023-04-25T11:45:12;2.10;;;0.60;;
6374;SDS011;35400;45.472;-122.822;2023-04-25T11:47:40;0.53;;;0.50;;
6374;SDS011;35400;45.472;-122.822;2023-04-25T11:50:07;1.20;;;0.60;;
6374;SDS011;35400;45.472;-122.822;2023-04-25T11:52:38;1.00;;;0.57;;
6374;SDS011;35400;45.472;-122.822;2023-04-25T11:55:08;0.50;;;0.50;;
6374;SDS011;35400;45.472;-122.822;2023-04-25T11:57:44;0.60;;;0.60;;
6374;SDS011;35400;45.472;-122.822;2023-04-25T12:02:43;1.33;;;0.43;;
6374;SDS011;35400;45.472;-122.822;2023-04-25T12:05:12;0.90;;;0.60;;
6374;SDS011;35400;45.472;-122.822;2023-04-25T12:07:41;0.60;;;0.60;;
6374;SDS011;35400;45.472;-122.822;2023-04-25T12:10:09;0.80;;;0.40;;
6374;SDS011;35400;45.472;-122.822;2023-04-25T12:12:37;1.10;;;0.53;;
6374;SDS011;35400;45.472;-122.822;2023-04-25T12:15:14;0.80;;;0.77;;
6374;SDS011;35400;45.472;-122.822;2023-04-25T12:17:45;1.23;;;0.63;;
6374;SDS011;35400;45.472;-122.822;2023-04-25T12:20:17;0.80;;;0.77;;
6374;SDS011;35400;45.472;-122.822;2023-04-25T12:22:51;1.57;;;0.83;;
6374;SDS011;35400;45.472;-122.822;2023-04-25T12:28:11;2.70;;;0.70;;
6374;SDS011;35400;45.472;-122.822;2023-04-25T12:33:25;0.93;;;0.77;;
6374;SDS011;35400;45.472;-122.822;2023-04-25T12:35:56;1.00;;;0.90;;
6374;SDS011;35400;45.472;-122.822;2023-04-25T12:38:30;1.03;;;0.93;;
6374;SDS011;35400;45.472;-122.822;2023-04-25T12:41:01;3.27;;;1.47;;
6374;SDS011;35400;45.472;-122.822;2023-04-25T12:43:28;3.57;;;1.73;;
6374;SDS011;35400;45.472;-122.822;2023-04-25T12:45:55;2.43;;;1.83;;
6374;SDS011;35400;45.472;-122.822;2023-04-25T12:48:22;3.30;;;1.90;;
6374;SDS011;35400;45.472;-122.822;2023-04-25T12:50:50;2.97;;;2.20;;
6374;SDS011;35400;45.472;-122.822;2023-04-25T12:53:19;2.03;;;1.87;;
6374;SDS011;35400;45.472;-122.822;2023-04-25T12:55:47;2.03;;;1.80;;
6374;SDS011;35400;45.472;-122.822;2023-04-25T12:58:15;1.40;;;1.30;;
6374;SDS011;35400;45.472;-122.822;2023-04-25T13:00:43;1.60;;;1.50;;
6374;SDS011;35400;45.472;-122.822;2023-04-25T13:03:11;1.77;;;1.30;;
6374;SDS011;35400;45.472;-122.822;2023-04-25T13:05:38;1.83;;;1.47;;
6374;SDS011;35400;45.472;-122.822;2023-04-25T13:08:05;3.67;;;1.10;;
6374;SDS011;35400;45.472;-122.822;2023-04-25T13:10:32;1.87;;;1.37;;
6374;SDS011;35400;45.472;-122.822;2023-04-25T13:13:02;2.20;;;1.30;;
6374;SDS011;35400;45.472;-122.822;2023-04-25T13:15:29;1.00;;;0.83;;
6374;SDS011;35400;45.472;-122.822;2023-04-25T13:17:56;1.27;;;1.13;;
6374;SDS011;35400;45.472;-122.822;2023-04-25T13:20:23;1.53;;;1.10;;
6374;SDS011;35400;45.472;-122.822;2023-04-25T13:22:50;0.73;;;0.73;;
6374;SDS011;35400;45.472;-122.822;2023-04-25T13:25:17;0.77;;;0.70;;
6374;SDS011;35400;45.472;-122.822;2023-04-25T13:27:44;0.90;;;0.80;;
6374;SDS011;35400;45.472;-122.822;2023-04-25T13:30:12;1.67;;;0.80;;
6374;SDS011;35400;45.472;-122.822;2023-04-25T13:32:39;0.53;;;0.53;;
6374;SDS011;35400;45.472;-122.822;2023-04-25T13:35:07;0.90;;;0.70;;
6374;SDS011;35400;45.472;-122.822;2023-04-25T13:37:37;0.60;;;0.60;;
6374;SDS011;35400;45.472;-122.822;2023-04-25T13:40:07;0.70;;;0.70;;
6374;SDS011;35400;45.472;-122.822;2023-04-25T13:42:37;0.70;;;0.70;;
6374;SDS011;35400;45.472;-122.822;2023-04-25T13:45:04;1.23;;;0.60;;
6374;SDS011;35400;45.472;-122.822;2023-04-25T13:47:32;1.60;;;0.70;;
6374;SDS011;35400;45.472;-122.822;2023-04-25T13:50:00;1.77;;;0.70;;
6374;SDS011;35400;45.472;-122.822;2023-04-25T13:52:28;0.80;;;0.80;;
6374;SDS011;35400;45.472;-122.822;2023-04-25T13:54:56;2.37;;;0.90;;
6374;SDS011;35400;45.472;-122.822;2023-04-25T13:57:23;1.27;;;0.70;;
6374;SDS011;35400;45.472;-122.822;2023-04-25T13:59:50;1.77;;;0.83;;
6374;SDS011;35400;45.472;-122.822;2023-04-25T14:02:18;0.83;;;0.63;;
6374;SDS011;35400;45.472;-122.822;2023-04-25T14:04:45;1.67;;;0.90;;
6374;SDS011;35400;45.472;-122.822;2023-04-25T14:07:12;2.10;;;1.00;;
6374;SDS011;35400;45.472;-122.822;2023-04-25T14:09:43;1.13;;;0.77;;
6374;SDS011;35400;45.472;-122.822;2023-04-25T14:12:10;0.87;;;0.70;;
6374;SDS011;35400;45.472;-122.822;2023-04-25T14:14:37;0.90;;;0.90;;
6374;SDS011;35400;45.472;-122.822;2023-04-25T14:17:04;1.00;;;0.90;;
6374;SDS011;35400;45.472;-122.822;2023-04-25T14:19:32;1.10;;;1.00;;
6374;SDS011;35400;45.472;-122.822;2023-04-25T14:21:58;2.43;;;1.03;;
6374;SDS011;35400;45.472;-122.822;2023-04-25T14:24:26;3.60;;;1.03;;
6374;SDS011;35400;45.472;-122.822;2023-04-25T14:26:53;0.67;;;0.67;;
6374;SDS011;35400;45.472;-122.822;2023-04-25T14:29:19;0.87;;;0.80;;
6374;SDS011;35400;45.472;-122.822;2023-04-25T14:31:47;1.23;;;0.90;;
6374;SDS011;35400;45.472;-122.822;2023-04-25T14:34:14;1.70;;;0.80;;
6374;SDS011;35400;45.472;-122.822;2023-04-25T14:36:41;1.20;;;0.80;;
6374;SDS011;35400;45.472;-122.822;2023-04-25T14:39:08;0.70;;;0.70;;
6374;SDS011;35400;45.472;-122.822;2023-04-25T14:41:35;0.60;;;0.50;;
6374;SDS011;35400;45.472;-122.822;2023-04-25T14:44:03;0.50;;;0.50;;
6374;SDS011;35400;45.472;-122.822;2023-04-25T14:46:29;0.80;;;0.73;;
6374;SDS011;35400;45.472;-122.822;2023-04-25T14:48:56;0.93;;;0.80;;
6374;SDS011;35400;45.472;-122.822;2023-04-25T14:51:23;3.53;;;1.20;;
6374;SDS011;35400;45.472;-122.822;2023-04-25T14:53:51;1.63;;;1.13;;